createdAt,value
2018-03-03T00:00:52.635Z,86.43
2018-03-03T00:03:20.217Z,75.80
2018-03-03T00:05:48.612Z,79.43
2018-03-03T00:08:16.195Z,80.03
2018-03-03T00:10:43.796Z,82.03
2018-03-03T00:13:11.408Z,76.67
2018-03-03T00:15:39.018Z,80.37
2018-03-03T00:18:07.378Z,81.57
2018-03-03T00:20:34.977Z,75.43
2018-03-03T00:23:03.339Z,79.73
2018-03-03T00:25:31.721Z,84.60
2018-03-03T00:28:00.091Z,87.20
2018-03-03T00:30:28.529Z,85.50
2018-03-03T00:32:56.118Z,78.80
2018-03-03T00:35:23.690Z,80.73
2018-03-03T00:37:51.287Z,84.70
2018-03-03T00:40:18.877Z,88.73
2018-03-03T00:42:46.472Z,86.23
2018-03-03T00:45:14.071Z,88.10
2018-03-03T00:47:41.697Z,81.43
2018-03-03T00:50:09.282Z,86.50
2018-03-03T00:52:36.919Z,98.50
2018-03-03T00:55:04.528Z,86.30
2018-03-03T00:57:32.858Z,89.40
2018-03-03T01:00:00.446Z,84.50
2018-03-03T01:02:28.036Z,90.73
2018-03-03T01:04:55.638Z,85.83
2018-03-03T01:07:24.006Z,90.13
2018-03-03T01:09:52.377Z,83.50
2018-03-03T01:12:20.781Z,96.67
2018-03-03T01:14:49.149Z,88.80
2018-03-03T01:17:16.732Z,89.30
2018-03-03T01:19:44.354Z,93.50
2018-03-03T01:22:11.957Z,91.10
2018-03-03T01:24:40.339Z,108.90
2018-03-03T01:27:07.925Z,100.10
2018-03-03T01:29:35.529Z,97.97
2018-03-03T01:32:03.136Z,100.17
2018-03-03T01:34:31.489Z,95.43
2018-03-03T01:36:59.094Z,91.40
2018-03-03T01:39:27.560Z,98.60
2018-03-03T01:41:55.912Z,97.20
2018-03-03T01:44:23.522Z,98.23
2018-03-03T01:46:51.896Z,97.67
2018-03-03T01:49:20.260Z,94.93
2018-03-03T01:51:47.925Z,89.80
2018-03-03T01:54:15.527Z,97.70
2018-03-03T01:56:43.103Z,92.57
2018-03-03T01:59:10.693Z,93.50
2018-03-03T02:01:38.288Z,90.33
2018-03-03T02:04:05.951Z,92.53
2018-03-03T02:06:34.033Z,94.23
2018-03-03T02:09:01.667Z,89.77
2018-03-03T02:11:29.239Z,93.50
2018-03-03T02:13:56.836Z,92.93
2018-03-03T02:16:25.232Z,90.83
2018-03-03T02:18:53.609Z,100.67
2018-03-03T02:21:21.968Z,94.27
2018-03-03T02:23:49.544Z,92.13
2018-03-03T02:26:17.971Z,94.37
2018-03-03T02:28:45.884Z,96.53
2018-03-03T02:31:13.443Z,100.03
2018-03-03T02:33:41.030Z,101.33
2018-03-03T02:36:09.405Z,89.27
2018-03-03T02:38:36.996Z,92.47
2018-03-03T02:41:04.617Z,88.37
2018-03-03T02:43:32.214Z,101.30
2018-03-03T02:45:59.843Z,97.60
2018-03-03T02:48:27.433Z,100.87
2018-03-03T02:50:55.027Z,99.53
2018-03-03T02:53:23.412Z,97.10
2018-03-03T02:55:51.802Z,100.40
2018-03-03T02:58:19.422Z,103.20
2018-03-03T03:00:47.008Z,99.83
2018-03-03T03:03:14.611Z,95.57
2018-03-03T03:05:42.222Z,103.57
2018-03-03T03:08:09.820Z,101.93
2018-03-03T03:10:38.186Z,88.40
2018-03-03T03:13:05.786Z,92.40
2018-03-03T03:15:33.374Z,97.90
2018-03-03T03:18:00.959Z,97.20
2018-03-03T03:20:28.560Z,98.00
2018-03-03T03:22:56.151Z,94.50
2018-03-03T03:25:23.723Z,88.03
2018-03-03T03:27:51.315Z,87.07
2018-03-03T03:30:18.887Z,94.10
2018-03-03T03:32:46.471Z,88.83
2018-03-03T03:35:14.060Z,96.83
2018-03-03T03:37:42.412Z,83.23
2018-03-03T03:40:10.032Z,98.00
2018-03-03T03:42:37.639Z,93.27
2018-03-03T03:45:05.206Z,87.80
2018-03-03T03:47:32.796Z,96.50
2018-03-03T03:50:02.040Z,94.60
2018-03-03T03:52:29.628Z,92.50
2018-03-03T03:54:57.237Z,96.53
2018-03-03T03:57:25.623Z,94.70
2018-03-03T03:59:54.484Z,96.83
2018-03-03T04:02:22.091Z,89.20
2018-03-03T04:04:49.658Z,96.10
2018-03-03T04:07:17.261Z,90.97
2018-03-03T04:09:44.877Z,88.73
2018-03-03T04:12:13.243Z,87.13
2018-03-03T04:14:41.605Z,86.27
2018-03-03T04:17:09.175Z,94.57
2018-03-03T04:19:36.740Z,89.80
2018-03-03T04:22:04.352Z,88.13
2018-03-03T04:24:32.006Z,83.40
2018-03-03T04:27:00.536Z,81.30
2018-03-03T04:29:28.567Z,85.10
2018-03-03T04:31:59.105Z,84.27
2018-03-03T04:34:29.773Z,84.13
2018-03-03T04:36:57.446Z,87.63
2018-03-03T04:39:25.284Z,90.20
2018-03-03T04:41:54.989Z,76.77
2018-03-03T04:44:22.835Z,88.00
2018-03-03T04:46:50.592Z,82.73
2018-03-03T04:49:18.720Z,82.73
2018-03-03T04:51:47.293Z,79.70
2018-03-03T04:54:14.899Z,78.53
2018-03-03T04:56:42.616Z,86.20
2018-03-03T04:59:14.589Z,82.10
2018-03-03T05:05:03.500Z,80.17
2018-03-03T05:07:46.002Z,86.63
2018-03-03T05:10:29.276Z,87.27
2018-03-03T05:13:02.612Z,88.77
2018-03-03T05:15:50.897Z,80.53
2018-03-03T05:18:37.586Z,86.53
2018-03-03T05:21:15.043Z,80.57
2018-03-03T05:23:48.270Z,79.57
2018-03-03T05:29:30.290Z,86.67
2018-03-03T05:32:03.641Z,83.53
2018-03-03T05:34:46.937Z,89.60
2018-03-03T05:37:20.178Z,91.97
2018-03-03T05:39:53.327Z,86.80
2018-03-03T05:42:36.757Z,83.70
2018-03-03T05:45:20.988Z,84.50
2018-03-03T05:48:03.494Z,87.43
2018-03-03T05:50:45.981Z,90.67
2018-03-03T05:53:19.190Z,85.77
2018-03-03T05:55:52.256Z,81.77
2018-03-03T05:58:26.044Z,88.80
2018-03-03T06:00:54.390Z,85.17
2018-03-03T06:03:40.664Z,90.47
2018-03-03T06:06:23.140Z,79.77
2018-03-03T06:08:56.629Z,92.87
2018-03-03T06:11:24.989Z,80.83
2018-03-03T06:13:52.613Z,88.50
2018-03-03T06:16:20.195Z,77.43
2018-03-03T06:18:47.867Z,76.97
2018-03-03T06:21:16.245Z,84.50
2018-03-03T06:23:44.620Z,85.60
2018-03-03T06:26:12.961Z,82.47
2018-03-03T06:28:41.373Z,78.93
2018-03-03T06:31:09.039Z,87.90
2018-03-03T06:33:36.635Z,88.93
2018-03-03T06:36:04.221Z,83.20
2018-03-03T06:38:31.829Z,81.10
2018-03-03T06:40:59.412Z,82.50
2018-03-03T06:43:26.976Z,79.43
2018-03-03T06:45:54.580Z,81.03
2018-03-03T06:48:22.174Z,86.73
2018-03-03T06:50:49.766Z,82.57
2018-03-03T06:53:17.370Z,86.00
2018-03-03T06:55:44.971Z,85.13
2018-03-03T06:58:13.338Z,86.13
2018-03-03T07:00:42.296Z,83.07
2018-03-03T07:03:09.893Z,83.53
2018-03-03T07:05:38.247Z,79.77
2018-03-03T07:08:05.879Z,83.00
2018-03-03T07:10:33.486Z,83.07
2018-03-03T07:13:01.100Z,78.13
2018-03-03T07:15:29.189Z,87.93
2018-03-03T07:17:56.798Z,83.53
2018-03-03T07:20:24.393Z,92.53
2018-03-03T07:22:52.729Z,80.87
2018-03-03T07:25:20.295Z,89.07
2018-03-03T07:27:47.950Z,86.23
2018-03-03T07:30:15.665Z,90.13
2018-03-03T07:32:44.029Z,82.33
2018-03-03T07:35:11.671Z,83.97
2018-03-03T07:37:43.263Z,92.17
2018-03-03T07:40:11.040Z,85.07
2018-03-03T07:42:39.411Z,88.47
2018-03-03T07:45:07.167Z,85.20
2018-03-03T07:47:34.793Z,75.10
2018-03-03T07:50:02.412Z,80.33
2018-03-03T07:52:30.767Z,81.67
2018-03-03T07:55:00.690Z,82.23
2018-03-03T07:57:28.272Z,79.97
2018-03-03T07:59:55.904Z,74.87
2018-03-03T08:02:23.596Z,77.50
2018-03-03T08:04:51.218Z,76.70
2018-03-03T08:07:18.830Z,80.20
2018-03-03T08:09:46.456Z,76.33
2018-03-03T08:12:14.037Z,84.50
2018-03-03T08:14:42.424Z,74.30
2018-03-03T08:17:10.809Z,80.50
2018-03-03T08:19:38.403Z,74.53
2018-03-03T08:22:06.031Z,78.00
2018-03-03T08:24:33.615Z,76.70
2018-03-03T08:27:01.191Z,72.63
2018-03-03T08:29:28.815Z,81.30
2018-03-03T08:31:56.382Z,75.73
2018-03-03T08:34:23.983Z,77.10
2018-03-03T08:36:52.316Z,74.07
2018-03-03T08:39:19.948Z,81.77
2018-03-03T08:41:47.563Z,71.37
2018-03-03T08:44:15.442Z,74.27
2018-03-03T08:46:43.058Z,79.97
2018-03-03T08:49:10.638Z,74.13
2018-03-03T08:51:39.012Z,78.33
2018-03-03T08:54:07.362Z,78.20
2018-03-03T08:56:35.392Z,72.23
2018-03-03T08:59:03.030Z,81.10
2018-03-03T09:01:30.663Z,80.20
2018-03-03T09:03:58.222Z,74.53
2018-03-03T09:06:25.793Z,67.53
2018-03-03T09:08:53.389Z,74.30
2018-03-03T09:11:20.978Z,71.70
2018-03-03T09:13:49.322Z,76.07
2018-03-03T09:16:16.904Z,78.30
2018-03-03T09:18:44.505Z,74.50
2018-03-03T09:21:12.065Z,76.77
2018-03-03T09:23:39.646Z,77.23
2018-03-03T09:26:07.222Z,79.87
2018-03-03T09:28:34.858Z,70.33
2018-03-03T09:31:02.451Z,70.17
2018-03-03T09:33:30.889Z,70.63
2018-03-03T09:35:58.464Z,78.53
2018-03-03T09:38:26.813Z,75.77
2018-03-03T09:40:54.424Z,75.13
2018-03-03T09:43:22.034Z,77.53
2018-03-03T09:45:49.673Z,73.83
2018-03-03T09:48:18.563Z,72.57
2018-03-03T09:50:46.148Z,75.73
2018-03-03T09:53:13.717Z,71.90
2018-03-03T09:55:41.346Z,73.00
2018-03-03T09:58:08.922Z,72.13
2018-03-03T10:00:36.528Z,75.00
2018-03-03T10:03:04.916Z,69.47
2018-03-03T10:05:33.420Z,75.67
2018-03-03T10:08:01.093Z,75.40
2018-03-03T10:10:29.495Z,77.60
2018-03-03T10:12:57.099Z,70.93
2018-03-03T10:15:24.679Z,74.73
2018-03-03T10:17:52.286Z,73.63
2018-03-03T10:20:19.920Z,79.47
2018-03-03T10:22:47.546Z,81.50
2018-03-03T10:25:15.184Z,71.80
2018-03-03T10:27:43.541Z,78.03
2018-03-03T10:30:11.903Z,72.90
2018-03-03T10:32:40.710Z,78.10
2018-03-03T10:35:08.307Z,74.13
2018-03-03T10:37:35.898Z,80.43
2018-03-03T10:40:03.552Z,72.50
2018-03-03T10:42:31.151Z,79.47
2018-03-03T10:44:59.189Z,81.93
2018-03-03T10:47:26.829Z,85.57
2018-03-03T10:49:55.198Z,77.50
2018-03-03T10:52:22.813Z,79.37
2018-03-03T10:54:50.381Z,82.27
2018-03-03T10:57:17.980Z,83.73
2018-03-03T10:59:45.591Z,81.90
2018-03-03T11:02:13.221Z,74.87
2018-03-03T11:04:40.806Z,73.73
2018-03-03T11:07:09.228Z,80.07
2018-03-03T11:09:36.819Z,76.13
2018-03-03T11:12:04.435Z,78.37
2018-03-03T11:14:32.025Z,75.87
2018-03-03T11:16:59.647Z,76.57
2018-03-03T11:19:28.039Z,80.10
2018-03-03T11:21:56.459Z,79.97
2018-03-03T11:24:24.188Z,76.10
2018-03-03T11:26:51.854Z,82.07
2018-03-03T11:29:20.254Z,76.20
2018-03-03T11:31:47.858Z,79.93
2018-03-03T11:34:15.526Z,76.27
2018-03-03T11:36:43.099Z,76.33
2018-03-03T11:39:11.436Z,82.40
2018-03-03T11:41:39.091Z,82.37
2018-03-03T11:44:06.790Z,75.80
2018-03-03T11:46:34.384Z,78.43
2018-03-03T11:49:02.054Z,76.93
2018-03-03T11:51:29.688Z,77.27
2018-03-03T11:53:57.335Z,81.57
2018-03-03T11:56:24.931Z,77.33
2018-03-03T11:58:52.564Z,82.17
2018-03-03T12:01:20.237Z,80.77
2018-03-03T12:03:48.199Z,74.07
2018-03-03T12:06:15.821Z,76.30
2018-03-03T12:08:43.434Z,76.80
2018-03-03T12:11:11.020Z,81.23
2018-03-03T12:13:38.633Z,79.60
2018-03-03T12:16:06.356Z,83.13
2018-03-03T12:18:34.031Z,76.40
2018-03-03T12:21:01.694Z,79.13
2018-03-03T12:23:29.406Z,82.87
2018-03-03T12:25:57.159Z,79.47
2018-03-03T12:28:26.576Z,76.00
2018-03-03T12:30:54.233Z,82.73
2018-03-03T12:33:24.687Z,79.77
2018-03-03T12:35:52.374Z,84.60
2018-03-03T12:38:20.081Z,75.40
2018-03-03T12:40:47.808Z,79.13
2018-03-03T12:43:15.491Z,80.77
2018-03-03T12:45:43.880Z,77.10
2018-03-03T12:48:11.575Z,78.20
2018-03-03T12:50:40.028Z,83.30
2018-03-03T12:53:07.768Z,80.23
2018-03-03T12:55:35.494Z,80.70
2018-03-03T12:58:04.158Z,82.70
2018-03-03T13:00:31.843Z,78.80
2018-03-03T13:02:59.559Z,77.27
2018-03-03T13:05:27.967Z,74.37
2018-03-03T13:07:55.646Z,80.97
2018-03-03T13:10:23.354Z,79.87
2018-03-03T13:12:51.081Z,76.33
2018-03-03T13:15:18.778Z,78.73
2018-03-03T13:17:46.389Z,82.60
2018-03-03T13:20:14.842Z,77.87
2018-03-03T13:22:42.475Z,79.83
2018-03-03T13:25:10.160Z,80.30
2018-03-03T13:27:37.834Z,82.80
2018-03-03T13:30:05.519Z,80.27
2018-03-03T13:32:33.923Z,85.93
2018-03-03T13:35:03.101Z,74.87
2018-03-03T13:37:31.556Z,82.70
2018-03-03T13:39:59.255Z,78.60
2018-03-03T13:42:27.692Z,77.63
2018-03-03T13:44:55.421Z,79.77
2018-03-03T13:47:23.238Z,75.60
2018-03-03T13:49:51.718Z,80.20
2018-03-03T13:52:19.323Z,79.73
2018-03-03T13:54:46.979Z,81.13
2018-03-03T13:57:14.623Z,84.00
2018-03-03T13:59:42.223Z,81.30
2018-03-03T14:02:09.865Z,76.37
2018-03-03T14:04:37.598Z,79.23
2018-03-03T14:07:05.351Z,80.27
2018-03-03T14:09:33.907Z,76.60
2018-03-03T14:12:02.421Z,76.40
2018-03-03T14:14:30.228Z,76.90
2018-03-03T14:16:57.836Z,80.47
2018-03-03T14:19:25.625Z,83.47
2018-03-03T14:21:53.710Z,79.27
2018-03-03T14:24:21.434Z,72.97
2018-03-03T14:26:49.046Z,82.20
2018-03-03T14:29:16.761Z,74.33
2018-03-03T14:31:44.469Z,75.67
2018-03-03T14:34:12.859Z,77.13
2018-03-03T14:36:40.575Z,77.07
2018-03-03T14:39:09.021Z,81.43
2018-03-03T14:41:36.739Z,81.37
2018-03-03T14:44:04.489Z,83.00
2018-03-03T14:46:32.135Z,76.73
2018-03-03T14:48:59.761Z,75.47
2018-03-03T14:51:28.203Z,80.10
2018-03-03T14:53:55.880Z,77.07
2018-03-03T14:56:23.523Z,69.97
2018-03-03T14:58:51.185Z,71.00
2018-03-03T15:01:18.799Z,73.13
2018-03-03T15:03:46.485Z,69.03
2018-03-03T15:06:15.253Z,71.23
2018-03-03T15:08:42.918Z,81.20
2018-03-03T15:11:11.186Z,77.07
2018-03-03T15:13:39.052Z,73.43
2018-03-03T15:16:08.728Z,75.03
2018-03-03T15:18:37.302Z,77.20
2018-03-03T15:21:06.433Z,76.20
2018-03-03T15:23:34.124Z,78.30
2018-03-03T15:26:01.939Z,74.00
2018-03-03T15:28:30.319Z,76.33
2018-03-03T15:30:58.730Z,71.27
2018-03-03T15:33:26.465Z,79.63
2018-03-03T15:35:54.225Z,78.00
2018-03-03T15:38:22.112Z,77.27
2018-03-03T15:40:50.537Z,76.60
2018-03-03T15:43:18.207Z,75.97
2018-03-03T15:45:45.829Z,74.60
2018-03-03T15:48:14.205Z,71.40
2018-03-03T15:50:42.667Z,76.33
2018-03-03T15:53:11.222Z,74.50
2018-03-03T15:55:38.927Z,74.20
2018-03-03T15:58:07.424Z,72.47
2018-03-03T16:00:35.898Z,75.23
2018-03-03T16:03:03.658Z,70.70
2018-03-03T16:05:31.426Z,74.67
2018-03-03T16:07:59.133Z,72.23
2018-03-03T16:10:26.847Z,77.07
2018-03-03T16:12:54.634Z,75.70
2018-03-03T16:15:23.128Z,82.57
2018-03-03T16:17:50.962Z,76.57
2018-03-03T16:20:18.648Z,79.13
2018-03-03T16:22:47.216Z,75.87
2018-03-03T16:25:14.882Z,73.43
2018-03-03T16:27:42.474Z,68.93
2018-03-03T16:30:11.113Z,74.70
2018-03-03T16:32:38.810Z,74.93
2018-03-03T16:35:06.526Z,77.17
2018-03-03T16:37:34.190Z,70.53
2018-03-03T16:40:02.577Z,72.37
2018-03-03T16:42:30.281Z,73.43
2018-03-03T16:44:57.978Z,72.60
2018-03-03T16:47:25.674Z,82.87
2018-03-03T16:49:53.276Z,77.60
2018-03-03T16:52:20.882Z,78.33
2018-03-03T16:54:48.508Z,72.53
2018-03-03T16:57:16.105Z,74.77
2018-03-03T16:59:44.422Z,76.10
2018-03-03T17:02:12.041Z,79.30
2018-03-03T17:04:39.667Z,76.83
2018-03-03T17:07:07.280Z,74.10
2018-03-03T17:09:34.896Z,69.67
2018-03-03T17:12:02.503Z,77.37
2018-03-03T17:14:30.125Z,67.67
2018-03-03T17:16:59.407Z,79.93
2018-03-03T17:19:27.034Z,73.43
2018-03-03T17:21:54.616Z,78.17
2018-03-03T17:24:22.223Z,77.30
2018-03-03T17:26:49.845Z,80.57
2018-03-03T17:29:17.468Z,74.93
2018-03-03T17:31:45.812Z,69.67
2018-03-03T17:34:13.396Z,76.53
2018-03-03T17:36:41.010Z,70.73
2018-03-03T17:39:08.662Z,78.10
2018-03-03T17:41:36.258Z,78.30
2018-03-03T17:44:03.862Z,79.90
2018-03-03T17:46:32.218Z,76.60
2018-03-03T17:48:59.799Z,80.50
2018-03-03T17:51:27.409Z,75.73
2018-03-03T17:53:54.990Z,77.93
2018-03-03T17:56:22.571Z,83.40
2018-03-03T17:58:50.177Z,77.07
2018-03-03T18:01:18.553Z,77.07
2018-03-03T18:03:46.172Z,74.80
2018-03-03T18:06:13.755Z,77.33
2018-03-03T18:08:41.402Z,77.87
2018-03-03T18:11:09.010Z,77.77
2018-03-03T18:13:36.606Z,82.77
2018-03-03T18:16:04.188Z,82.37
2018-03-03T18:18:31.820Z,76.87
2018-03-03T18:21:00.188Z,83.43
2018-03-03T18:23:27.782Z,80.80
2018-03-03T18:25:55.402Z,89.80
2018-03-03T18:28:23.011Z,81.03
2018-03-03T18:30:50.699Z,82.50
2018-03-03T18:33:18.288Z,87.30
2018-03-03T18:35:45.874Z,82.47
2018-03-03T18:38:13.507Z,83.77
2018-03-03T18:40:41.142Z,81.40
2018-03-03T18:43:08.847Z,78.00
2018-03-03T18:45:36.437Z,84.57
2018-03-03T18:48:04.043Z,86.40
2018-03-03T18:50:31.648Z,86.47
2018-03-03T18:52:59.942Z,84.70
2018-03-03T18:55:27.534Z,80.43
2018-03-03T18:57:55.910Z,84.50
2018-03-03T19:00:23.528Z,87.33
2018-03-03T19:02:51.118Z,82.63
2018-03-03T19:05:18.738Z,83.00
2018-03-03T19:07:46.359Z,90.37
2018-03-03T19:10:13.960Z,87.90
2018-03-03T19:12:42.338Z,83.67
2018-03-03T19:15:10.683Z,87.73
2018-03-03T19:17:38.355Z,88.20
2018-03-03T19:20:06.016Z,91.37
2018-03-03T19:22:33.607Z,86.57
2018-03-03T19:25:01.218Z,78.47
2018-03-03T19:27:28.832Z,82.83
2018-03-03T19:29:56.588Z,91.90
2018-03-03T19:32:24.168Z,87.90
2018-03-03T19:34:52.526Z,93.30
2018-03-03T19:37:20.140Z,97.67
2018-03-03T19:39:47.849Z,94.60
2018-03-03T19:42:15.450Z,86.70
2018-03-03T19:44:43.973Z,85.73
2018-03-03T19:47:11.633Z,93.90
2018-03-03T19:49:39.228Z,99.00
2018-03-03T19:52:06.871Z,86.20
2018-03-03T19:54:34.471Z,94.90
2018-03-03T19:57:02.079Z,85.57
2018-03-03T19:59:30.477Z,90.80
2018-03-03T20:01:58.121Z,99.70
2018-03-03T20:04:25.769Z,90.00
2018-03-03T20:06:55.773Z,95.13
2018-03-03T20:09:23.390Z,100.27
2018-03-03T20:11:51.544Z,98.53
2018-03-03T20:14:19.209Z,99.83
2018-03-03T20:16:47.641Z,94.40
2018-03-03T20:19:15.292Z,94.10
2018-03-03T20:21:42.893Z,95.90
2018-03-03T20:24:10.542Z,98.27
2018-03-03T20:26:38.143Z,96.80
2018-03-03T20:29:05.758Z,95.60
2018-03-03T20:31:33.388Z,103.03
2018-03-03T20:34:01.745Z,95.57
2018-03-03T20:36:29.345Z,103.30
2018-03-03T20:38:58.398Z,97.00
2018-03-03T20:41:26.019Z,99.50
2018-03-03T20:43:53.613Z,99.63
2018-03-03T20:46:21.257Z,101.87
2018-03-03T20:48:48.853Z,91.60
2018-03-03T20:51:16.460Z,91.93
2018-03-03T20:53:44.835Z,101.87
2018-03-03T20:56:13.263Z,99.57
2018-03-03T20:58:40.896Z,102.80
2018-03-03T21:01:09.276Z,94.00
2018-03-03T21:03:37.684Z,98.73
2018-03-03T21:06:06.069Z,95.53
2018-03-03T21:08:33.761Z,100.67
2018-03-03T21:11:02.171Z,102.87
2018-03-03T21:13:30.686Z,101.07
2018-03-03T21:15:59.046Z,96.87
2018-03-03T21:18:26.654Z,92.93
2018-03-03T21:20:55.001Z,104.23
2018-03-03T21:23:22.687Z,106.27
2018-03-03T21:25:51.183Z,106.47
2018-03-03T21:28:19.571Z,97.37
2018-03-03T21:30:47.203Z,100.37
2018-03-03T21:33:14.804Z,96.60
2018-03-03T21:35:43.171Z,97.40
2018-03-03T21:38:11.560Z,94.07
2018-03-03T21:40:39.932Z,98.87
2018-03-03T21:43:07.542Z,99.30
2018-03-03T21:45:35.800Z,97.50
2018-03-03T21:48:03.435Z,101.83
2018-03-03T21:50:31.064Z,96.20
2018-03-03T21:52:58.658Z,101.23
2018-03-03T21:55:26.344Z,104.73
2018-03-03T21:57:54.692Z,102.50
2018-03-03T22:00:22.291Z,97.47
2018-03-03T22:02:50.814Z,97.87
2018-03-03T22:05:18.389Z,104.20
2018-03-03T22:07:46.037Z,93.40
2018-03-03T22:10:13.629Z,101.03
2018-03-03T22:12:41.225Z,100.70
2018-03-03T22:15:08.836Z,92.60
2018-03-03T22:17:36.466Z,98.90
2018-03-03T22:20:04.052Z,107.27
2018-03-03T22:22:32.423Z,97.47
2018-03-03T22:25:00.892Z,93.47
2018-03-03T22:27:28.598Z,105.90
2018-03-03T22:29:56.200Z,100.27
2018-03-03T22:32:23.784Z,101.87
2018-03-03T22:34:51.382Z,100.63
2018-03-03T22:37:19.005Z,101.93
2018-03-03T22:39:46.647Z,99.73
2018-03-03T22:42:14.242Z,105.83
2018-03-03T22:44:41.857Z,101.43
2018-03-03T22:47:09.475Z,98.87
2018-03-03T22:49:37.071Z,97.30
2018-03-03T22:52:04.723Z,98.87
2018-03-03T22:54:33.968Z,107.70
2018-03-03T22:57:01.605Z,103.70
2018-03-03T22:59:29.988Z,100.30
2018-03-03T23:01:57.561Z,106.87
2018-03-03T23:04:25.176Z,107.10
2018-03-03T23:06:52.784Z,106.93
2018-03-03T23:09:21.164Z,104.80
2018-03-03T23:11:49.532Z,104.67
2018-03-03T23:14:17.174Z,105.10
2018-03-03T23:16:44.793Z,106.33
2018-03-03T23:19:12.420Z,101.00
2018-03-03T23:21:40.674Z,104.83
2018-03-03T23:24:08.286Z,108.33
2018-03-03T23:26:35.860Z,109.23
2018-03-03T23:29:04.229Z,100.00
2018-03-03T23:31:32.651Z,107.30
2018-03-03T23:34:01.046Z,102.87
2018-03-03T23:36:28.649Z,107.23
2018-03-03T23:38:56.257Z,107.70
2018-03-03T23:41:23.873Z,101.57
2018-03-03T23:43:51.457Z,103.17
2018-03-03T23:46:19.052Z,108.70
2018-03-03T23:48:46.648Z,106.70
2018-03-03T23:51:14.257Z,105.00
2018-03-03T23:53:42.618Z,109.43
2018-03-03T23:56:10.207Z,99.03
2018-03-03T23:58:38.576Z,100.30
